Time;durP1;ratioP1;P1;durP2;ratioP2;P2;SDS_P1;SDS_P2;PMS_P1;PMS_P2;Temp;Humidity;BMP_temperature;BMP_pressure;BME280_temperature;BME280_humidity;BME280_pressure;Samples;Min_cycle;Max_cycle;Signal;HPM_P1;HPM_P2
2024/02/05 00:00:22;;;;;;;20.27;5.60;;;;;10.00;101777.00;;;;10370563;28;20218;-80
2024/02/05 00:05:23;;;;;;;30.60;5.60;;;;;10.00;101784.00;;;;10367618;28;20636;-80
2024/02/05 00:10:24;;;;;;;19.63;5.77;;;;;10.10;101776.00;;;;10389137;28;20209;-80
2024/02/05 00:15:26;;;;;;;28.47;7.57;;;;;10.00;101778.00;;;;10382752;28;20211;-79
2024/02/05 00:20:27;;;;;;;24.80;6.23;;;;;10.10;101784.00;;;;10355306;28;20355;-80
2024/02/05 00:25:29;;;;;;;27.20;6.20;;;;;10.00;101774.00;;;;10391333;28;21255;-80
2024/02/05 00:30:30;;;;;;;32.27;5.87;;;;;9.90;101780.00;;;;10375422;28;20213;-80
2024/02/05 00:35:31;;;;;;;31.77;6.13;;;;;9.90;101787.00;;;;10410358;28;20206;-78
2024/02/05 00:40:34;;;;;;;23.17;5.80;;;;;9.90;101787.00;;;;10449465;28;21111;-78
2024/02/05 00:45:36;;;;;;;30.53;7.07;;;;;10.00;101784.00;;;;10365343;28;20233;-79
2024/02/05 00:50:38;;;;;;;24.70;6.50;;;;;10.00;101785.00;;;;10406460;28;20228;-79
2024/02/05 00:55:39;;;;;;;27.57;6.43;;;;;10.10;101790.00;;;;10374185;28;20241;-79
2024/02/05 01:00:40;;;;;;;28.77;6.10;;;;;10.00;101790.00;;;;10373369;28;20217;-79
2024/02/05 01:05:42;;;;;;;31.80;5.97;;;;;10.00;101795.00;;;;10369948;28;20226;-79
2024/02/05 01:10:43;;;;;;;27.40;6.37;;;;;9.90;101793.00;;;;10378679;28;21932;-79
2024/02/05 01:15:44;;;;;;;27.67;6.47;;;;;9.90;101793.00;;;;10373492;28;20237;-77
2024/02/05 01:20:49;;;;;;;27.43;5.17;;;;;9.90;101791.00;;;;10412361;28;20678;-80
2024/02/05 01:25:50;;;;;;;27.07;6.57;;;;;10.00;101801.00;;;;10381155;28;20240;-79
2024/02/05 01:30:51;;;;;;;26.90;6.30;;;;;10.00;101791.00;;;;10374892;28;20217;-79
2024/02/05 01:35:52;;;;;;;26.43;5.90;;;;;10.00;101800.00;;;;10373273;28;20201;-79
2024/02/05 01:40:54;;;;;;;31.63;6.30;;;;;10.10;101795.00;;;;10374208;28;20359;-80
2024/02/05 01:45:56;;;;;;;30.77;6.20;;;;;10.10;101794.00;;;;10409310;28;20348;-82
2024/02/05 01:50:57;;;;;;;26.40;6.30;;;;;10.10;101793.00;;;;10386404;28;20205;-80
2024/02/05 01:55:58;;;;;;;33.60;5.83;;;;;10.20;101801.00;;;;10358084;28;20209;-79
2024/02/05 02:01:00;;;;;;;30.33;6.17;;;;;10.20;101786.00;;;;10378939;28;20220;-79
2024/02/05 02:06:03;;;;;;;33.03;7.23;;;;;10.20;101784.00;;;;10381724;28;20225;-80
2024/02/05 02:11:04;;;;;;;23.57;6.50;;;;;10.20;101777.00;;;;10382672;28;20248;-79
2024/02/05 02:16:11;;;;;;;26.43;5.60;;;;;10.20;101781.00;;;;10390949;28;20247;-79
2024/02/05 02:21:14;;;;;;;33.20;6.77;;;;;10.20;101776.00;;;;10372561;28;21894;-78
2024/02/05 02:26:16;;;;;;;33.47;6.50;;;;;10.20;101778.00;;;;10359569;28;20233;-80
2024/02/05 02:31:20;;;;;;;21.53;6.23;;;;;10.10;101767.00;;;;10376398;28;20348;-79
2024/02/05 02:36:32;;;;;;;28.43;8.20;;;;;10.10;101760.00;;;;10368019;28;20213;-79
2024/02/05 02:41:36;;;;;;;28.33;6.43;;;;;10.10;101748.00;;;;10352596;28;22039;-78
2024/02/05 02:46:39;;;;;;;18.93;5.50;;;;;10.10;101751.00;;;;10409947;28;20217;-78
2024/02/05 02:51:40;;;;;;;34.73;6.90;;;;;10.00;101751.00;;;;10372936;28;21194;-79
2024/02/05 02:56:41;;;;;;;29.67;5.67;;;;;10.10;101751.00;;;;10353344;28;20314;-79
2024/02/05 03:01:43;;;;;;;31.83;6.93;;;;;10.10;101747.00;;;;10373145;28;20295;-79
2024/02/05 03:06:44;;;;;;;29.37;7.27;;;;;10.10;101740.00;;;;10371403;28;20316;-78
2024/02/05 03:11:45;;;;;;;27.73;6.77;;;;;10.10;101737.00;;;;10387793;28;20315;-78
2024/02/05 03:16:47;;;;;;;22.77;5.73;;;;;10.00;101731.00;;;;10388974;28;20794;-79
2024/02/05 03:21:48;;;;;;;28.03;5.67;;;;;10.00;101726.00;;;;10370796;28;20836;-78
2024/02/05 03:26:50;;;;;;;24.27;6.87;;;;;10.00;101718.00;;;;10348733;28;20304;-79
2024/02/05 03:31:51;;;;;;;25.10;5.63;;;;;10.00;101717.00;;;;10380450;28;20673;-78
2024/02/05 03:36:52;;;;;;;29.37;7.03;;;;;10.00;101710.00;;;;10459702;28;20681;-78
2024/02/05 03:41:53;;;;;;;30.27;7.27;;;;;10.00;101716.00;;;;10417165;28;20217;-78
2024/02/05 03:46:55;;;;;;;23.87;5.63;;;;;10.00;101705.00;;;;10359892;28;20241;-80
2024/02/05 03:51:56;;;;;;;25.37;6.07;;;;;10.00;101701.00;;;;10370854;28;20205;-79
2024/02/05 03:56:58;;;;;;;26.13;6.40;;;;;10.00;101710.00;;;;10369388;28;20220;-80
2024/02/05 04:02:02;;;;;;;27.33;6.20;;;;;10.00;101701.00;;;;10349465;28;20214;-80
2024/02/05 04:07:03;;;;;;;25.23;6.90;;;;;10.00;101707.00;;;;10372383;28;20225;-79
2024/02/05 04:12:05;;;;;;;27.97;5.87;;;;;10.00;101704.00;;;;10371890;28;20217;-79
2024/02/05 04:17:10;;;;;;;23.03;6.03;;;;;10.00;101693.00;;;;10390248;28;20298;-79
2024/02/05 04:22:12;;;;;;;24.67;5.63;;;;;10.00;101691.00;;;;10414168;28;20204;-80
2024/02/05 04:27:14;;;;;;;24.53;5.70;;;;;10.00;101701.00;;;;10392149;28;20255;-79
2024/02/05 04:32:15;;;;;;;25.60;5.63;;;;;9.90;101703.00;;;;10353748;28;20259;-80
2024/02/05 04:37:17;;;;;;;24.33;6.13;;;;;9.90;101713.00;;;;10376448;28;20426;-84
2024/02/05 04:42:18;;;;;;;24.27;6.40;;;;;9.90;101720.00;;;;10390795;28;20231;-84
2024/02/05 04:47:19;;;;;;;23.80;6.23;;;;;9.90;101726.00;;;;10374105;28;20229;-84
2024/02/05 04:52:20;;;;;;;25.43;5.57;;;;;9.90;101727.00;;;;10376505;28;20287;-82
2024/02/05 04:57:22;;;;;;;25.20;6.00;;;;;9.90;101719.00;;;;10356778;28;20233;-85
2024/02/05 05:02:23;;;;;;;27.30;6.97;;;;;9.90;101717.00;;;;10374436;28;21588;-84
2024/02/05 05:07:24;;;;;;;32.73;8.40;;;;;9.90;101711.00;;;;10392976;28;20241;-84
2024/02/05 05:12:27;;;;;;;27.13;8.17;;;;;9.90;101712.00;;;;10398636;28;20919;-83
2024/02/05 05:17:28;;;;;;;24.90;5.90;;;;;9.90;101718.00;;;;10383776;28;20232;-83
2024/02/05 05:22:29;;;;;;;24.93;5.47;;;;;9.90;101725.00;;;;10379698;28;20224;-84
2024/02/05 05:27:30;;;;;;;26.07;5.67;;;;;9.90;101707.00;;;;10390277;28;20232;-84
2024/02/05 05:32:31;;;;;;;25.00;5.97;;;;;9.90;101707.00;;;;10362540;28;20229;-84
2024/02/05 05:37:33;;;;;;;30.27;6.37;;;;;9.90;101707.00;;;;10376418;28;20213;-83
2024/02/05 05:42:34;;;;;;;25.47;5.80;;;;;9.80;101710.00;;;;10393506;28;22082;-84
2024/02/05 05:47:35;;;;;;;22.50;5.60;;;;;9.80;101695.00;;;;10387890;28;20229;-79
2024/02/05 05:52:37;;;;;;;23.37;6.27;;;;;9.80;101684.00;;;;10371572;28;20303;-80
2024/02/05 05:57:38;;;;;;;36.27;7.33;;;;;9.80;101695.00;;;;10369657;28;20209;-79
2024/02/05 06:02:40;;;;;;;25.07;5.90;;;;;9.70;101703.00;;;;10352664;28;20226;-80
2024/02/05 06:07:41;;;;;;;29.33;6.37;;;;;9.70;101703.00;;;;10378617;28;20229;-79
2024/02/05 06:12:44;;;;;;;34.67;11.80;;;;;9.70;101684.00;;;;10381022;28;21459;-79
2024/02/05 06:17:45;;;;;;;30.20;8.97;;;;;9.70;101696.00;;;;10378618;28;20433;-80
2024/02/05 06:22:46;;;;;;;27.57;7.17;;;;;9.70;101692.00;;;;10376114;28;20216;-79
2024/02/05 06:27:47;;;;;;;29.37;6.90;;;;;9.60;101693.00;;;;10369352;28;20217;-80
2024/02/05 06:32:49;;;;;;;36.60;7.70;;;;;9.60;101692.00;;;;10380530;28;20205;-79
2024/02/05 06:37:50;;;;;;;28.83;7.13;;;;;9.60;101684.00;;;;10467810;28;21820;-80
2024/02/05 06:42:51;;;;;;;35.63;6.83;;;;;9.50;101682.00;;;;10398622;28;20202;-79
2024/02/05 06:47:52;;;;;;;25.83;5.73;;;;;9.50;101683.00;;;;10353959;28;20225;-80
2024/02/05 06:52:54;;;;;;;24.27;6.43;;;;;9.40;101671.00;;;;10370150;28;21043;-80
2024/02/05 06:57:55;;;;;;;29.07;6.10;;;;;9.30;101686.00;;;;10365689;28;20268;-79
2024/02/05 07:02:56;;;;;;;32.00;7.23;;;;;9.30;101683.00;;;;10357711;28;20219;-77
2024/02/05 07:07:57;;;;;;;26.37;6.67;;;;;9.30;101693.00;;;;10380693;28;20222;-80
2024/02/05 07:12:59;;;;;;;26.37;6.33;;;;;9.40;101695.00;;;;10400759;28;20209;-80
2024/02/05 07:18:01;;;;;;;36.97;7.60;;;;;9.40;101691.00;;;;10360170;28;20255;-82
2024/02/05 07:23:02;;;;;;;27.20;7.40;;;;;9.40;101689.00;;;;10344313;28;20205;-80
2024/02/05 07:28:03;;;;;;;30.87;6.80;;;;;9.40;101698.00;;;;10364182;28;20260;-78
2024/02/05 07:33:05;;;;;;;34.23;7.67;;;;;9.40;101710.00;;;;10355912;28;21016;-79
2024/02/05 07:38:06;;;;;;;32.33;8.37;;;;;9.40;101706.00;;;;10385876;28;20227;-79
2024/02/05 07:43:07;;;;;;;24.13;6.57;;;;;9.40;101714.00;;;;10378254;28;20819;-79
2024/02/05 07:48:09;;;;;;;27.43;6.00;;;;;9.50;101716.00;;;;10367727;28;20236;-80
2024/02/05 07:53:11;;;;;;;30.90;6.57;;;;;9.60;101719.00;;;;10356171;28;20335;-79
2024/02/05 07:58:12;;;;;;;33.17;6.37;;;;;9.70;101720.00;;;;10389242;28;20209;-79
2024/02/05 08:03:14;;;;;;;27.70;6.63;;;;;9.70;101716.00;;;;10388074;28;20799;-78
2024/02/05 08:08:16;;;;;;;28.10;6.93;;;;;9.70;101735.00;;;;10385455;28;20221;-78
2024/02/05 08:13:17;;;;;;;34.10;6.93;;;;;9.80;101736.00;;;;10377815;28;20220;-79
2024/02/05 08:18:18;;;;;;;18.17;5.90;;;;;9.90;101738.00;;;;10365375;28;20765;-78
2024/02/05 08:23:19;;;;;;;26.27;6.30;;;;;9.90;101745.00;;;;10379312;28;20214;-78
2024/02/05 08:28:21;;;;;;;28.50;5.93;;;;;10.00;101742.00;;;;10404062;28;20238;-80
2024/02/05 08:33:23;;;;;;;18.70;5.90;;;;;10.10;101739.00;;;;10394062;28;20319;-80
2024/02/05 08:38:24;;;;;;;20.57;6.43;;;;;10.20;101734.00;;;;10384534;28;20220;-80
2024/02/05 08:43:26;;;;;;;26.63;7.13;;;;;10.20;101729.00;;;;10380929;28;20270;-81
2024/02/05 08:48:27;;;;;;;24.33;5.23;;;;;10.30;101719.00;;;;10366431;28;21313;-84
2024/02/05 08:53:29;;;;;;;22.00;6.20;;;;;10.40;101731.00;;;;10407957;28;20238;-81
2024/02/05 08:58:30;;;;;;;19.33;6.00;;;;;10.40;101727.00;;;;10351509;28;20233;-82
2024/02/05 09:03:31;;;;;;;19.43;5.07;;;;;10.50;101721.00;;;;10350020;28;21002;-82
2024/02/05 09:08:36;;;;;;;23.07;5.63;;;;;10.70;101719.00;;;;10370481;28;20306;-83
2024/02/05 09:13:37;;;;;;;17.83;5.27;;;;;10.70;101722.00;;;;10375905;28;21926;-83
2024/02/05 09:18:38;;;;;;;29.43;6.60;;;;;10.70;101722.00;;;;10383145;28;20581;-80
2024/02/05 09:23:40;;;;;;;17.77;4.80;;;;;10.80;101705.00;;;;10419129;28;20262;-82
2024/02/05 09:28:43;;;;;;;19.50;5.57;;;;;10.90;101707.00;;;;10388774;28;20236;-81
2024/02/05 09:33:45;;;;;;;21.17;5.43;;;;;11.10;101703.00;;;;10352707;28;21886;-83
2024/02/05 09:38:46;;;;;;;27.60;6.23;;;;;11.30;101701.00;;;;10350033;28;20218;-85
2024/02/05 09:43:50;;;;;;;19.47;6.80;;;;;11.50;101701.00;;;;10348308;28;21846;-82
2024/02/05 09:48:51;;;;;;;22.90;5.40;;;;;11.60;101700.00;;;;10365926;28;20218;-80
2024/02/05 09:53:53;;;;;;;24.43;5.70;;;;;11.80;101687.00;;;;10356986;28;21848;-80
2024/02/05 09:59:14;;;;;;;17.15;5.80;;;;;12.00;101698.00;;;;10365168;28;20217;-81
2024/02/05 10:04:18;;;;;;;28.52;7.13;;;;;12.10;101693.00;;;;10474752;28;20222;-77
2024/02/05 10:09:23;;;;;;;22.50;5.05;;;;;12.10;101702.00;;;;10442796;28;20211;-84
2024/02/05 10:14:25;;;;;;;14.85;4.18;;;;;12.10;101708.00;;;;10433446;28;20296;-77
2024/02/05 10:19:30;;;;;;;12.32;4.85;;;;;12.10;101705.00;;;;10472546;28;20205;-80
2024/02/05 10:24:34;;;;;;;20.60;5.18;;;;;12.20;101699.00;;;;10445492;28;20253;-81
2024/02/05 10:29:35;;;;;;;14.52;4.50;;;;;12.40;101707.00;;;;10465383;28;20306;-79
2024/02/05 10:34:37;;;;;;;24.58;5.30;;;;;12.60;101713.00;;;;10454981;28;20204;-78
2024/02/05 10:39:38;;;;;;;22.92;5.38;;;;;12.70;101695.00;;;;10474966;28;20837;-79
2024/02/05 10:44:41;;;;;;;20.40;5.65;;;;;12.90;101700.00;;;;10450207;28;20210;-79
2024/02/05 10:49:43;;;;;;;19.50;6.20;;;;;12.70;101696.00;;;;10458254;28;20205;-81
2024/02/05 10:54:46;;;;;;;20.70;5.18;;;;;12.60;101701.00;;;;10434114;28;20236;-83
2024/02/05 10:59:48;;;;;;;27.83;5.50;;;;;12.60;101706.00;;;;10442917;28;20561;-80
2024/02/05 11:04:55;;;;;;;21.90;6.55;;;;;12.60;101704.00;;;;10439485;28;20221;-79
2024/02/05 11:09:59;;;;;;;20.55;5.15;;;;;12.50;101704.00;;;;10407027;28;20217;-78
2024/02/05 11:15:06;;;;;;;18.10;5.70;;;;;12.50;101687.00;;;;10418466;28;20225;-82
2024/02/05 11:20:11;;;;;;;23.35;5.05;;;;;12.50;101685.00;;;;10441120;28;20225;-78
2024/02/05 11:25:14;;;;;;;15.98;4.80;;;;;12.60;101693.00;;;;10422240;28;20262;-85
2024/02/05 11:30:17;;;;;;;24.52;5.15;;;;;12.50;101670.00;;;;10433694;28;20233;-80
2024/02/05 11:35:18;;;;;;;20.52;6.00;;;;;12.20;101681.00;;;;10416364;28;20217;-77
2024/02/05 11:40:25;;;;;;;23.77;5.07;;;;;12.20;101657.00;;;;10419768;28;20237;-80
2024/02/05 11:45:26;;;;;;;24.98;5.53;;;;;12.50;101655.00;;;;10427623;28;20313;-78
2024/02/05 11:50:28;;;;;;;22.35;5.63;;;;;12.60;101649.00;;;;10431519;28;20221;-82
2024/02/05 11:55:29;;;;;;;16.27;5.50;;;;;12.40;101642.00;;;;10438532;28;20217;-79
2024/02/05 12:00:30;;;;;;;18.48;4.53;;;;;12.30;101649.00;;;;10434151;28;20715;-81
2024/02/05 12:05:32;;;;;;;21.00;5.80;;;;;12.30;101621.00;;;;10442545;28;20776;-80
2024/02/05 12:10:36;;;;;;;17.33;5.38;;;;;12.30;101624.00;;;;10476501;28;20236;-78
2024/02/05 12:15:39;;;;;;;22.73;5.28;;;;;12.10;101640.00;;;;10455697;28;20719;-80
2024/02/05 12:20:40;;;;;;;23.85;5.60;;;;;12.00;101635.00;;;;10442507;28;20225;-80
2024/02/05 12:25:42;;;;;;;16.50;5.50;;;;;11.80;101627.00;;;;10442538;28;20308;-81
2024/02/05 12:30:44;;;;;;;21.60;5.82;;;;;11.60;101630.00;;;;10420060;28;20220;-78
2024/02/05 12:36:00;;;;;;;20.25;5.22;;;;;11.60;101622.00;;;;10417946;28;20565;-81
2024/02/05 12:41:02;;;;;;;23.83;6.25;;;;;11.50;101627.00;;;;10456521;28;20567;-82
2024/02/05 12:46:04;;;;;;;22.07;5.33;;;;;11.30;101628.00;;;;10442826;28;20269;-83
2024/02/05 12:51:07;;;;;;;27.43;5.63;;;;;11.20;101624.00;;;;10453282;28;20225;-78
2024/02/05 12:56:10;;;;;;;24.50;6.30;;;;;11.10;101616.00;;;;10435638;28;20302;-79
2024/02/05 13:01:15;;;;;;;19.43;5.90;;;;;10.90;101626.00;;;;10433297;28;20914;-80
2024/02/05 13:06:23;;;;;;;24.73;6.43;;;;;10.90;101603.00;;;;10413034;28;20234;-82
2024/02/05 13:11:25;;;;;;;23.13;5.50;;;;;10.90;101603.00;;;;10412617;28;20225;-79
2024/02/05 13:16:26;;;;;;;16.27;5.23;;;;;10.80;101614.00;;;;10443203;28;20247;-77
2024/02/05 13:21:27;;;;;;;21.17;6.07;;;;;10.80;101585.00;;;;10458874;28;20213;-82
2024/02/05 13:26:28;;;;;;;20.73;5.70;;;;;10.90;101590.00;;;;10434487;28;20229;-79
2024/02/05 13:31:30;;;;;;;20.87;6.43;;;;;10.90;101580.00;;;;10423367;28;20206;-84
2024/02/05 13:36:33;;;;;;;16.17;6.43;;;;;11.00;101560.00;;;;10426363;28;20999;-78
2024/02/05 13:41:38;;;;;;;20.80;6.23;;;;;11.10;101546.00;;;;10422370;28;20601;-78
2024/02/05 13:46:40;;;;;;;14.70;5.00;;;;;11.30;101541.00;;;;10420944;28;20280;-79
2024/02/05 13:51:41;;;;;;;19.53;5.40;;;;;11.30;101542.00;;;;10443009;28;20222;-81
2024/02/05 13:56:43;;;;;;;17.20;6.20;;;;;11.20;101533.00;;;;10439836;28;20221;-83
2024/02/05 14:01:45;;;;;;;26.50;6.10;;;;;11.00;101534.00;;;;10425844;28;20895;-80
2024/02/05 14:06:47;;;;;;;18.97;5.83;;;;;11.00;101525.00;;;;10420159;28;20221;-79
2024/02/05 14:11:48;;;;;;;19.57;6.60;;;;;10.90;101526.00;;;;10414599;28;21127;-80
2024/02/05 14:16:50;;;;;;;19.23;6.17;;;;;10.80;101522.00;;;;10401656;28;20218;-82
2024/02/05 14:21:51;;;;;;;23.20;7.63;;;;;10.90;101518.00;;;;10424574;28;20299;-79
2024/02/05 14:26:53;;;;;;;22.63;7.27;;;;;10.70;101526.00;;;;10435520;28;20299;-81
2024/02/05 14:31:54;;;;;;;23.03;8.63;;;;;10.60;101512.00;;;;10425285;28;20244;-78
2024/02/05 14:36:55;;;;;;;27.50;9.90;;;;;10.40;101506.00;;;;10411756;28;20223;-79
2024/02/05 14:41:57;;;;;;;19.60;8.37;;;;;10.30;101504.00;;;;10446515;28;20239;-79
2024/02/05 14:46:58;;;;;;;25.40;9.77;;;;;10.20;101504.00;;;;10466937;28;20236;-80
2024/02/05 14:52:00;;;;;;;32.80;9.93;;;;;10.30;101504.00;;;;10420946;28;20217;-78
2024/02/05 14:57:02;;;;;;;25.07;10.40;;;;;10.30;101495.00;;;;10440484;28;20266;-79
2024/02/05 15:02:03;;;;;;;25.87;9.93;;;;;10.20;101494.00;;;;10424263;28;20225;-84
2024/02/05 15:07:05;;;;;;;25.80;9.87;;;;;10.10;101499.00;;;;10442517;28;20235;-82
2024/02/05 15:12:08;;;;;;;29.80;11.47;;;;;10.10;101496.00;;;;10445091;28;20220;-83
2024/02/05 15:17:10;;;;;;;22.13;10.33;;;;;10.00;101500.00;;;;10427464;28;20244;-77
2024/02/05 15:22:12;;;;;;;30.07;10.37;;;;;9.90;101492.00;;;;10424568;28;20224;-80
2024/02/05 15:27:14;;;;;;;18.90;9.90;;;;;9.80;101488.00;;;;10420616;28;20229;-81
2024/02/05 15:32:15;;;;;;;23.53;11.20;;;;;9.80;101490.00;;;;10440252;28;20217;-83
2024/02/05 15:37:16;;;;;;;26.67;10.47;;;;;9.70;101488.00;;;;10430446;28;20241;-81
2024/02/05 15:42:18;;;;;;;30.57;11.50;;;;;9.70;101473.00;;;;10449149;28;20296;-81
2024/02/05 15:47:19;;;;;;;20.57;10.20;;;;;9.60;101471.00;;;;10413755;28;20295;-81
2024/02/05 15:52:20;;;;;;;28.40;11.10;;;;;9.60;101469.00;;;;10437755;28;20213;-79
2024/02/05 15:57:21;;;;;;;26.57;10.87;;;;;9.60;101460.00;;;;10441732;28;20673;-80
2024/02/05 16:02:23;;;;;;;30.20;12.13;;;;;9.50;101448.00;;;;10440312;28;20241;-80
2024/02/05 16:07:24;;;;;;;21.60;9.20;;;;;9.40;101460.00;;;;10436260;28;20248;-81
2024/02/05 16:12:28;;;;;;;26.87;9.37;;;;;9.40;101462.00;;;;10421715;28;20343;-82
2024/02/05 16:17:29;;;;;;;21.60;7.93;;;;;9.30;101444.00;;;;10425891;28;20250;-86
2024/02/05 16:22:33;;;;;;;22.63;7.50;;;;;9.30;101444.00;;;;10431255;28;20840;-86
2024/02/05 16:27:35;;;;;;;28.63;10.70;;;;;9.20;101430.00;;;;10448167;28;20220;-85
2024/02/05 16:32:36;;;;;;;32.10;9.53;;;;;9.20;101437.00;;;;10436483;28;20238;-86
2024/02/05 16:37:38;;;;;;;27.10;9.77;;;;;9.20;101430.00;;;;10446478;28;20230;-85
2024/02/05 16:42:39;;;;;;;29.83;9.70;;;;;9.10;101427.00;;;;10429293;28;20217;-87
2024/02/05 16:47:41;;;;;;;18.87;7.50;;;;;9.10;101413.00;;;;10468076;28;20214;-87
2024/02/05 16:52:43;;;;;;;21.53;10.13;;;;;9.00;101408.00;;;;10463316;28;20224;-87
2024/02/05 16:57:44;;;;;;;29.87;10.30;;;;;9.10;101414.00;;;;10448358;28;20232;-87
2024/02/05 17:02:46;;;;;;;23.10;10.03;;;;;9.10;101400.00;;;;10443482;28;20224;-85
2024/02/05 17:07:47;;;;;;;21.37;9.70;;;;;9.00;101406.00;;;;10449647;28;20303;-87
2024/02/05 17:12:49;;;;;;;21.67;8.50;;;;;9.00;101398.00;;;;10437088;28;20291;-87
2024/02/05 17:17:50;;;;;;;21.67;9.00;;;;;9.00;101401.00;;;;10421940;28;20217;-88
2024/02/05 17:22:51;;;;;;;19.37;7.80;;;;;9.00;101402.00;;;;10432043;28;20285;-85
2024/02/05 17:27:52;;;;;;;21.37;8.97;;;;;9.00;101410.00;;;;10418180;28;20308;-83
2024/02/05 17:32:53;;;;;;;15.00;7.07;;;;;9.00;101398.00;;;;10441661;28;20217;-84
2024/02/05 17:37:56;;;;;;;22.07;8.10;;;;;9.00;101408.00;;;;10412587;28;20321;-83
2024/02/05 17:42:57;;;;;;;15.53;7.10;;;;;9.00;101402.00;;;;10474513;28;20198;-83
2024/02/05 17:47:58;;;;;;;15.20;7.23;;;;;9.00;101406.00;;;;10485859;28;20239;-84
2024/02/05 17:53:01;;;;;;;21.63;6.97;;;;;9.00;101411.00;;;;10430303;28;20821;-84
2024/02/05 17:58:04;;;;;;;13.40;6.90;;;;;9.10;101427.00;;;;10414085;28;20743;-84
2024/02/05 18:03:05;;;;;;;13.87;6.30;;;;;9.10;101430.00;;;;10437694;28;20221;-84
2024/02/05 18:08:07;;;;;;;15.47;5.53;;;;;9.10;101420.00;;;;10415879;28;20227;-83
2024/02/05 18:13:10;;;;;;;14.20;6.00;;;;;9.10;101423.00;;;;10426194;28;20229;-84
2024/02/05 18:18:12;;;;;;;13.03;5.97;;;;;9.10;101419.00;;;;10422425;28;20308;-85
2024/02/05 18:23:13;;;;;;;15.13;5.97;;;;;9.10;101432.00;;;;10441845;28;20222;-84
2024/02/05 18:28:14;;;;;;;15.43;5.83;;;;;9.10;101426.00;;;;10429870;28;20217;-84
2024/02/05 18:33:16;;;;;;;12.07;5.77;;;;;9.10;101423.00;;;;10438957;28;20279;-84
2024/02/05 18:38:17;;;;;;;13.00;5.97;;;;;9.10;101414.00;;;;10422892;28;20226;-80
2024/02/05 18:43:21;;;;;;;17.23;5.97;;;;;9.10;101401.00;;;;10456346;28;20233;-81
2024/02/05 18:48:23;;;;;;;13.77;5.87;;;;;9.10;101398.00;;;;10454687;28;20304;-81
2024/02/05 18:53:25;;;;;;;12.07;5.77;;;;;9.10;101400.00;;;;10402795;28;20262;-81
2024/02/05 18:58:29;;;;;;;13.60;6.07;;;;;9.10;101391.00;;;;10391033;28;20686;-81
2024/02/05 19:03:32;;;;;;;16.27;5.90;;;;;9.10;101391.00;;;;10427493;28;21206;-81
2024/02/05 19:08:33;;;;;;;16.90;5.90;;;;;9.00;101385.00;;;;10444756;28;20222;-81
2024/02/05 19:13:34;;;;;;;14.60;6.10;;;;;9.00;101382.00;;;;10434373;28;20217;-81
2024/02/05 19:18:41;;;;;;;14.13;5.73;;;;;9.00;101371.00;;;;10428591;28;20672;-82
2024/02/05 19:23:44;;;;;;;17.03;6.53;;;;;9.00;101371.00;;;;10441088;28;20213;-82
2024/02/05 19:28:45;;;;;;;13.37;5.77;;;;;9.00;101379.00;;;;10417975;28;20253;-82
2024/02/05 19:33:46;;;;;;;16.57;5.73;;;;;9.00;101358.00;;;;10416835;28;20209;-80
2024/02/05 19:38:49;;;;;;;14.23;4.50;;;;;9.10;101359.00;;;;10430231;28;20213;-81
2024/02/05 19:43:50;;;;;;;12.70;6.37;;;;;9.10;101348.00;;;;10435593;28;20244;-84
2024/02/05 19:48:51;;;;;;;10.20;6.57;;;;;9.10;101351.00;;;;10433910;28;20221;-86
2024/02/05 19:53:54;;;;;;;13.10;5.30;;;;;9.10;101336.00;;;;10429086;28;20217;-86
2024/02/05 19:58:55;;;;;;;13.53;5.83;;;;;9.10;101351.00;;;;10433835;28;20217;-84
2024/02/05 20:03:56;;;;;;;15.30;6.17;;;;;9.10;101338.00;;;;10437511;28;20229;-85
2024/02/05 20:09:01;;;;;;;13.93;5.83;;;;;9.10;101327.00;;;;10426585;28;20779;-86
2024/02/05 20:14:04;;;;;;;13.07;6.27;;;;;9.00;101324.00;;;;10431887;28;20225;-84
2024/02/05 20:19:05;;;;;;;10.47;6.43;;;;;9.10;101338.00;;;;10420830;28;20220;-85
2024/02/05 20:24:07;;;;;;;9.97;5.03;;;;;9.00;101329.00;;;;10460639;28;20814;-85
2024/02/05 20:29:08;;;;;;;8.50;4.90;;;;;9.00;101332.00;;;;10457331;28;20218;-85
2024/02/05 20:34:09;;;;;;;11.07;5.17;;;;;9.00;101331.00;;;;10438721;28;20309;-86
2024/02/05 20:39:14;;;;;;;10.47;5.97;;;;;8.90;101323.00;;;;10442767;28;20300;-86
2024/02/05 20:44:15;;;;;;;12.70;5.90;;;;;8.90;101335.00;;;;10436149;28;20229;-86
2024/02/05 20:49:17;;;;;;;10.03;5.70;;;;;8.80;101323.00;;;;10422593;28;20218;-87
2024/02/05 20:54:18;;;;;;;9.77;5.77;;;;;8.70;101313.00;;;;10450849;28;20224;-86
2024/02/05 20:59:20;;;;;;;9.53;5.93;;;;;8.60;101316.00;;;;10418786;28;20229;-85
2024/02/05 21:04:21;;;;;;;12.00;6.03;;;;;8.50;101299.00;;;;10442771;28;20911;-87
2024/02/05 21:09:24;;;;;;;10.93;6.03;;;;;8.40;101304.00;;;;10450646;28;20225;-86
2024/02/05 21:14:25;;;;;;;12.57;6.63;;;;;8.40;101304.00;;;;10426925;28;20224;-87
2024/02/05 21:19:26;;;;;;;12.20;6.87;;;;;8.30;101304.00;;;;10455550;28;20279;-86
2024/02/05 21:24:28;;;;;;;11.97;6.73;;;;;8.30;101306.00;;;;10422533;28;20671;-87
2024/02/05 21:29:29;;;;;;;15.17;6.60;;;;;8.30;101313.00;;;;10442310;28;20206;-85
2024/02/05 21:34:30;;;;;;;11.80;7.00;;;;;8.30;101288.00;;;;10418321;28;20272;-86
2024/02/05 21:39:32;;;;;;;11.03;7.67;;;;;8.40;101283.00;;;;10427404;28;20228;-87
2024/02/05 21:44:33;;;;;;;14.30;6.50;;;;;8.50;101280.00;;;;10458171;28;20222;-86
2024/02/05 21:49:34;;;;;;;11.63;6.60;;;;;8.60;101261.00;;;;10436314;28;20691;-88
2024/02/05 21:54:36;;;;;;;8.17;5.20;;;;;8.60;101271.00;;;;10417954;28;20217;-85
2024/02/05 21:59:37;;;;;;;11.90;5.27;;;;;8.70;101268.00;;;;10435923;28;20253;-86
2024/02/05 22:04:38;;;;;;;9.73;5.60;;;;;8.70;101288.00;;;;10457331;28;20221;-81
2024/02/05 22:09:40;;;;;;;7.60;5.53;;;;;8.80;101267.00;;;;10417840;28;20258;-82
2024/02/05 22:14:41;;;;;;;11.77;6.10;;;;;8.80;101270.00;;;;10418236;28;20216;-81
2024/02/05 22:19:42;;;;;;;10.23;5.80;;;;;8.80;101270.00;;;;10444793;28;20226;-84
2024/02/05 22:24:44;;;;;;;13.07;6.37;;;;;8.80;101259.00;;;;10433484;28;20231;-86
2024/02/05 22:29:45;;;;;;;11.63;6.00;;;;;8.90;101254.00;;;;10441149;28;20232;-83
2024/02/05 22:34:46;;;;;;;7.57;5.20;;;;;8.90;101240.00;;;;10434437;28;20945;-81
2024/02/05 22:39:47;;;;;;;8.20;5.53;;;;;8.90;101238.00;;;;10449591;28;20231;-82
2024/02/05 22:44:49;;;;;;;6.43;5.13;;;;;9.00;101231.00;;;;10459387;28;20236;-81
2024/02/05 22:49:50;;;;;;;11.17;5.40;;;;;9.00;101239.00;;;;10431445;28;20251;-82
2024/02/05 22:54:52;;;;;;;11.00;5.20;;;;;9.10;101236.00;;;;10412779;28;20229;-83
2024/02/05 22:59:53;;;;;;;11.20;5.53;;;;;9.10;101246.00;;;;10420385;28;20229;-79
2024/02/05 23:04:54;;;;;;;8.87;5.33;;;;;9.00;101236.00;;;;10463776;28;20222;-82
2024/02/05 23:09:55;;;;;;;11.00;5.43;;;;;9.00;101242.00;;;;10475345;28;20213;-85
2024/02/05 23:14:56;;;;;;;10.50;5.40;;;;;9.00;101249.00;;;;10457595;28;20287;-80
2024/02/05 23:19:58;;;;;;;7.67;5.73;;;;;9.00;101250.00;;;;10431329;28;20253;-82
2024/02/05 23:24:59;;;;;;;13.10;5.70;;;;;9.00;101236.00;;;;10449997;28;20898;-82
2024/02/05 23:30:01;;;;;;;6.40;5.00;;;;;9.00;101222.00;;;;10428172;28;20210;-81
2024/02/05 23:35:04;;;;;;;8.83;5.63;;;;;9.00;101209.00;;;;10437870;28;20252;-81
2024/02/05 23:40:06;;;;;;;10.83;5.17;;;;;9.10;101212.00;;;;10415596;28;20286;-83
2024/02/05 23:45:07;;;;;;;12.27;6.03;;;;;9.10;101221.00;;;;10436772;28;20228;-82
2024/02/05 23:50:09;;;;;;;7.23;4.90;;;;;9.10;101210.00;;;;10434272;28;20226;-83
2024/02/05 23:55:10;;;;;;;8.93;5.77;;;;;9.10;101213.00;;;;10444617;28;20593;-83
